createdAt,value
2023-03-01T00:01:57.165Z,12.50
2023-03-01T00:04:25.818Z,12.87
2023-03-01T00:06:54.523Z,13.70
2023-03-01T00:09:23.267Z,13.00
2023-03-01T00:11:53.346Z,12.77
2023-03-01T00:14:23.111Z,12.73
2023-03-01T00:16:51.883Z,13.00
2023-03-01T00:19:23.029Z,12.37
2023-03-01T00:21:51.900Z,12.67
2023-03-01T00:24:20.620Z,12.50
2023-03-01T00:26:49.375Z,13.60
2023-03-01T00:29:19.539Z,11.77
2023-03-01T00:31:48.288Z,11.70
2023-03-01T00:34:17.109Z,12.00
2023-03-01T00:36:45.832Z,12.50
2023-03-01T00:39:17.187Z,12.23
2023-03-01T00:41:46.545Z,11.33
2023-03-01T00:44:15.725Z,11.87
2023-03-01T00:46:45.833Z,11.67
2023-03-01T00:49:15.216Z,11.67
2023-03-01T00:51:44.209Z,11.47
2023-03-01T00:54:12.953Z,11.90
2023-03-01T00:56:41.747Z,11.90
2023-03-01T00:59:10.437Z,11.50
2023-03-01T01:01:39.305Z,11.53
2023-03-01T01:04:13.108Z,12.90
2023-03-01T01:06:45.183Z,11.90
2023-03-01T01:09:19.183Z,11.23
2023-03-01T01:11:50.427Z,11.53
2023-03-01T01:14:20.644Z,11.47
2023-03-01T01:16:50.447Z,11.63
2023-03-01T01:19:21.127Z,11.07
2023-03-01T01:21:50.804Z,11.47
2023-03-01T01:24:21.892Z,10.93
2023-03-01T01:26:50.704Z,11.70
2023-03-01T01:29:19.732Z,11.77
2023-03-01T01:31:48.452Z,11.73
2023-03-01T01:34:20.994Z,11.77
2023-03-01T01:36:51.826Z,11.47
2023-03-01T01:39:20.601Z,11.87
2023-03-01T01:41:49.864Z,11.90
2023-03-01T01:44:24.475Z,12.07
2023-03-01T01:47:00.956Z,12.23
2023-03-01T01:49:39.062Z,12.07
2023-03-01T01:52:16.098Z,12.63
2023-03-01T01:54:52.666Z,11.93
2023-03-01T01:57:28.688Z,12.67
2023-03-01T02:00:04.990Z,12.87
2023-03-01T02:02:44.438Z,12.80
2023-03-01T02:05:21.864Z,12.97
2023-03-01T02:07:51.178Z,13.10
2023-03-01T02:10:23.286Z,12.77
2023-03-01T02:12:52.484Z,12.33
2023-03-01T02:15:21.217Z,12.10
2023-03-01T02:17:49.994Z,12.10
2023-03-01T02:20:31.825Z,12.80
2023-03-01T02:23:02.186Z,12.67
2023-03-01T02:25:42.993Z,12.50
2023-03-01T02:28:27.094Z,13.03
2023-03-01T02:31:13.946Z,12.07
2023-03-01T02:33:44.590Z,11.73
2023-03-01T02:36:20.966Z,12.47
2023-03-01T02:38:52.356Z,12.23
2023-03-01T02:41:24.025Z,12.17
2023-03-01T02:43:54.719Z,11.93
2023-03-01T02:46:26.700Z,11.77
2023-03-01T02:48:59.475Z,11.83
2023-03-01T02:51:47.492Z,11.90
2023-03-01T02:54:27.589Z,12.50
2023-03-01T02:56:58.830Z,12.70
2023-03-01T02:59:36.159Z,13.00
2023-03-01T03:02:04.934Z,13.20
2023-03-01T03:04:33.760Z,13.00
2023-03-01T03:07:02.702Z,13.30
2023-03-01T03:09:31.498Z,13.17
2023-03-01T03:12:00.181Z,12.60
2023-03-01T03:14:30.500Z,12.10
2023-03-01T03:16:59.285Z,12.33
2023-03-01T03:19:28.555Z,12.57
2023-03-01T03:21:57.319Z,12.10
2023-03-01T03:24:25.937Z,13.07
2023-03-01T03:26:54.618Z,12.43
2023-03-01T03:29:23.426Z,11.53
2023-03-01T03:31:53.639Z,11.40
2023-03-01T03:34:22.351Z,12.73
2023-03-01T03:36:57.719Z,11.83
2023-03-01T03:39:26.500Z,12.20
2023-03-01T03:41:55.621Z,12.63
2023-03-01T03:44:24.539Z,12.60
2023-03-01T03:46:54.736Z,12.30
2023-03-01T03:49:23.496Z,12.17
2023-03-01T03:51:52.155Z,12.53
2023-03-01T03:54:20.836Z,12.87
2023-03-01T03:56:49.564Z,12.80
2023-03-01T03:59:18.237Z,12.83
2023-03-01T04:01:47.032Z,12.77
2023-03-01T04:04:19.953Z,13.10
2023-03-01T04:06:49.584Z,12.87
2023-03-01T04:09:18.337Z,13.47
2023-03-01T04:11:47.054Z,13.10
2023-03-01T04:14:15.951Z,12.03
2023-03-01T04:16:44.690Z,13.17
2023-03-01T04:19:13.310Z,13.43
2023-03-01T04:21:43.392Z,13.00
2023-03-01T04:24:12.177Z,12.63
2023-03-01T04:26:40.840Z,13.00
2023-03-01T04:29:09.612Z,12.60
2023-03-01T04:31:38.428Z,13.10
2023-03-01T04:34:07.096Z,12.43
2023-03-01T04:36:38.475Z,12.40
2023-03-01T04:39:13.315Z,12.60
2023-03-01T04:41:44.251Z,12.53
2023-03-01T04:44:13.710Z,12.80
2023-03-01T04:46:42.433Z,12.50
2023-03-01T04:49:11.051Z,12.37
2023-03-01T04:51:39.800Z,12.30
2023-03-01T04:54:09.921Z,12.33
2023-03-01T04:56:38.761Z,13.13
2023-03-01T04:59:08.941Z,12.03
2023-03-01T05:01:38.731Z,13.40
2023-03-01T05:04:08.401Z,16.43
2023-03-01T05:06:37.116Z,12.83
2023-03-01T05:09:06.112Z,12.60
2023-03-01T05:11:36.972Z,14.30
2023-03-01T05:14:06.611Z,19.60
2023-03-01T05:16:36.543Z,24.73
2023-03-01T05:19:12.781Z,19.07
2023-03-01T05:22:01.837Z,21.63
2023-03-01T05:24:32.930Z,13.87
2023-03-01T05:27:04.784Z,38.40
2023-03-01T05:29:35.974Z,22.47
2023-03-01T05:32:05.586Z,19.30
2023-03-01T05:34:37.723Z,18.73
2023-03-01T05:37:08.703Z,17.10
2023-03-01T05:39:40.014Z,13.50
2023-03-01T05:42:16.703Z,12.83
2023-03-01T05:44:46.305Z,13.93
2023-03-01T05:47:15.164Z,13.43
2023-03-01T05:49:43.835Z,14.10
2023-03-01T05:52:13.661Z,17.23
2023-03-01T05:54:42.540Z,15.13
2023-03-01T05:57:12.733Z,14.07
2023-03-01T05:59:41.448Z,15.27
2023-03-01T06:02:10.279Z,15.40
2023-03-01T06:04:39.357Z,15.53
2023-03-01T06:07:14.347Z,15.40
2023-03-01T06:09:43.088Z,14.57
2023-03-01T06:12:14.005Z,14.47
2023-03-01T06:14:43.279Z,14.60
2023-03-01T06:17:15.384Z,14.43
2023-03-01T06:19:44.364Z,15.30
2023-03-01T06:22:13.111Z,13.93
2023-03-01T06:24:41.917Z,14.10
2023-03-01T06:27:10.587Z,13.83
2023-03-01T06:29:41.822Z,13.87
2023-03-01T06:32:11.446Z,12.83
2023-03-01T06:34:40.553Z,14.57
2023-03-01T06:37:09.887Z,14.13
2023-03-01T06:39:38.870Z,19.57
2023-03-01T06:42:07.663Z,19.07
2023-03-01T06:44:36.281Z,18.67
2023-03-01T06:47:07.236Z,27.73
2023-03-01T06:49:35.938Z,21.27
2023-03-01T06:52:04.976Z,17.57
2023-03-01T06:54:33.671Z,18.80
2023-03-01T06:57:02.477Z,18.90
2023-03-01T06:59:31.450Z,22.57
2023-03-01T07:02:00.388Z,20.17
2023-03-01T07:04:31.635Z,19.40
2023-03-01T07:07:00.323Z,13.73
2023-03-01T07:09:30.974Z,17.87
2023-03-01T07:12:00.454Z,14.27
2023-03-01T07:14:29.452Z,14.07
2023-03-01T07:16:58.363Z,17.60
2023-03-01T07:19:27.326Z,17.73
2023-03-01T07:21:57.871Z,17.10
2023-03-01T07:24:26.679Z,16.90
2023-03-01T07:26:55.762Z,15.37
2023-03-01T07:29:24.474Z,21.77
2023-03-01T07:31:53.221Z,14.33
2023-03-01T07:34:21.962Z,14.80
2023-03-01T07:36:50.737Z,16.07
2023-03-01T07:39:20.870Z,14.93
2023-03-01T07:41:49.548Z,14.10
2023-03-01T07:44:23.350Z,13.67
2023-03-01T07:46:53.477Z,14.47
2023-03-01T07:49:22.484Z,13.90
2023-03-01T07:51:51.217Z,13.80
2023-03-01T07:54:21.353Z,14.00
2023-03-01T07:56:50.072Z,13.30
2023-03-01T07:59:18.780Z,14.20
2023-03-01T08:01:47.550Z,14.20
2023-03-01T08:04:16.188Z,14.87
2023-03-01T08:06:44.903Z,14.37
2023-03-01T08:09:13.535Z,14.57
2023-03-01T08:11:43.640Z,17.03
2023-03-01T08:14:12.754Z,15.33
2023-03-01T08:16:41.974Z,17.13
2023-03-01T08:19:13.697Z,17.47
2023-03-01T08:21:42.825Z,17.87
2023-03-01T08:24:12.314Z,17.57
2023-03-01T08:26:42.442Z,17.23
2023-03-01T08:29:11.074Z,17.70
2023-03-01T08:31:42.191Z,18.23
2023-03-01T08:34:14.732Z,20.00
2023-03-01T08:36:46.342Z,18.27
2023-03-01T08:39:18.056Z,21.17
2023-03-01T08:41:49.576Z,18.37
2023-03-01T08:44:18.898Z,19.27
2023-03-01T08:46:47.732Z,18.00
2023-03-01T08:49:21.154Z,19.37
2023-03-01T08:51:50.810Z,19.70
2023-03-01T08:54:21.756Z,20.17
2023-03-01T08:56:52.169Z,20.23
2023-03-01T08:59:21.372Z,19.30
2023-03-01T09:01:50.059Z,20.33
2023-03-01T09:04:18.850Z,20.03
2023-03-01T09:06:47.500Z,20.30
2023-03-01T09:09:18.829Z,19.60
2023-03-01T09:11:48.382Z,20.13
2023-03-01T09:14:18.595Z,23.27
2023-03-01T09:16:47.824Z,20.03
2023-03-01T09:19:16.718Z,20.70
2023-03-01T09:21:53.054Z,23.57
2023-03-01T09:24:24.683Z,23.80
2023-03-01T09:26:57.584Z,24.83
2023-03-01T09:29:28.074Z,23.93
2023-03-01T09:31:57.215Z,23.03
2023-03-01T09:34:26.215Z,21.23
2023-03-01T09:36:55.007Z,19.93
2023-03-01T09:39:23.825Z,20.13
2023-03-01T09:42:03.197Z,20.03
2023-03-01T09:44:43.784Z,19.77
2023-03-01T09:47:20.837Z,20.53
2023-03-01T09:50:06.930Z,20.47
2023-03-01T09:52:43.873Z,21.00
2023-03-01T09:55:19.986Z,21.47
2023-03-01T09:57:55.374Z,20.37
2023-03-01T10:00:42.175Z,19.97
2023-03-01T10:03:22.118Z,19.37
2023-03-01T10:06:01.962Z,21.67
2023-03-01T10:08:39.895Z,20.27
2023-03-01T10:11:25.091Z,20.43
2023-03-01T10:14:03.815Z,19.90
2023-03-01T10:16:46.029Z,19.83
2023-03-01T10:19:24.142Z,19.70
2023-03-01T10:21:55.288Z,19.40
2023-03-01T10:24:24.097Z,20.80
2023-03-01T10:26:59.030Z,19.83
2023-03-01T10:29:38.245Z,18.77
2023-03-01T10:32:08.641Z,19.73
2023-03-01T10:34:38.962Z,19.70
2023-03-01T10:37:15.044Z,19.90
2023-03-01T10:40:00.522Z,19.20
2023-03-01T10:42:33.056Z,19.97
2023-03-01T10:45:27.005Z,19.00
2023-03-01T10:48:13.825Z,19.00
2023-03-01T10:50:44.698Z,16.37
2023-03-01T10:53:36.736Z,19.13
2023-03-01T10:56:09.677Z,17.37
2023-03-01T10:58:41.032Z,17.97
2023-03-01T11:01:28.634Z,17.30
2023-03-01T11:04:16.329Z,18.00
2023-03-01T11:06:45.660Z,19.07
2023-03-01T11:09:20.728Z,20.00
2023-03-01T11:11:55.301Z,18.93
2023-03-01T11:14:28.060Z,19.23
2023-03-01T11:17:07.006Z,19.43
2023-03-01T11:19:37.190Z,18.60
2023-03-01T11:22:14.560Z,18.33
2023-03-01T11:24:49.333Z,17.97
2023-03-01T11:27:27.390Z,17.33
2023-03-01T11:30:05.768Z,18.07
2023-03-01T11:32:43.438Z,17.37
2023-03-01T11:35:22.733Z,17.43
2023-03-01T11:38:12.268Z,16.80
2023-03-01T11:40:49.003Z,16.57
2023-03-01T11:43:28.951Z,17.30
2023-03-01T11:46:37.457Z,17.53
2023-03-01T11:49:45.663Z,15.80
2023-03-01T11:52:33.793Z,18.70
2023-03-01T11:55:27.075Z,17.90
2023-03-01T11:58:34.464Z,17.87
2023-03-01T12:01:27.995Z,17.07
2023-03-01T12:04:33.283Z,17.43
2023-03-01T12:07:10.487Z,18.03
2023-03-01T12:10:02.599Z,17.77
2023-03-01T12:12:47.123Z,16.90
2023-03-01T12:15:57.825Z,15.87
2023-03-01T12:19:00.870Z,16.00
2023-03-01T12:21:49.192Z,16.17
2023-03-01T12:24:42.079Z,15.17
2023-03-01T12:27:41.128Z,15.57
2023-03-01T12:30:34.943Z,14.40
2023-03-01T12:33:28.200Z,16.00
2023-03-01T12:36:30.230Z,14.50
2023-03-01T12:39:23.692Z,14.50
2023-03-01T12:42:08.490Z,15.10
2023-03-01T12:45:04.311Z,15.27
2023-03-01T12:47:53.848Z,14.23
2023-03-01T12:50:26.502Z,14.73
2023-03-01T12:52:58.916Z,13.93
2023-03-01T12:55:35.321Z,12.73
2023-03-01T12:58:22.301Z,13.30
2023-03-01T13:01:13.681Z,12.47
2023-03-01T13:04:20.826Z,11.33
2023-03-01T13:07:07.043Z,11.57
2023-03-01T13:09:47.269Z,11.20
2023-03-01T13:13:04.293Z,10.30
2023-03-01T13:15:36.869Z,10.63
2023-03-01T13:18:33.099Z,10.67
2023-03-01T13:21:06.634Z,11.93
2023-03-01T13:23:41.289Z,13.73
2023-03-01T13:26:17.602Z,13.50
2023-03-01T13:29:01.114Z,13.77
2023-03-01T13:32:05.014Z,14.20
2023-03-01T13:34:56.906Z,12.63
2023-03-01T13:37:38.872Z,14.30
2023-03-01T13:41:00.272Z,14.67
2023-03-01T13:43:34.779Z,12.53
2023-03-01T13:46:12.292Z,11.90
2023-03-01T13:48:42.586Z,14.60
2023-03-01T13:51:14.814Z,13.17
2023-03-01T13:53:47.181Z,14.70
2023-03-01T13:56:21.566Z,13.87
2023-03-01T13:58:57.367Z,13.17
2023-03-01T14:01:31.682Z,15.23
2023-03-01T14:04:01.892Z,14.13
2023-03-01T14:06:36.692Z,14.70
2023-03-01T14:13:15.879Z,17.40
2023-03-01T14:16:15.670Z,12.77
2023-03-01T14:18:57.763Z,12.37
2023-03-01T14:21:27.176Z,14.37
2023-03-01T14:23:57.537Z,17.60
2023-03-01T14:26:26.667Z,15.80
2023-03-01T14:28:56.565Z,13.73
2023-03-01T14:31:52.093Z,14.10
2023-03-01T14:34:25.400Z,21.63
2023-03-01T14:36:54.181Z,19.87
2023-03-01T14:39:27.857Z,15.00
2023-03-01T14:42:00.606Z,56.63
2023-03-01T14:44:34.996Z,14.67
2023-03-01T14:47:03.736Z,27.47
2023-03-01T14:49:34.810Z,14.77
2023-03-01T14:52:08.387Z,14.17
2023-03-01T14:54:45.417Z,15.03
2023-03-01T14:57:19.358Z,14.27
2023-03-01T15:04:57.462Z,15.53
2023-03-01T15:07:31.627Z,15.33
2023-03-01T15:10:00.015Z,14.17
2023-03-01T15:12:38.921Z,15.17
2023-03-01T15:15:39.499Z,14.57
2023-03-01T15:18:18.107Z,15.33
2023-03-01T15:24:34.273Z,14.50
2023-03-01T15:27:07.003Z,16.00
2023-03-01T15:29:41.703Z,15.97
2023-03-01T15:32:31.652Z,14.80
2023-03-01T15:35:01.650Z,14.07
2023-03-01T15:37:48.568Z,14.70
2023-03-01T15:40:32.474Z,15.50
2023-03-01T15:43:02.168Z,15.73
2023-03-01T15:45:32.513Z,15.90
2023-03-01T15:48:06.219Z,15.60
2023-03-01T15:50:41.047Z,16.13
2023-03-01T15:53:15.881Z,14.90
2023-03-01T15:55:47.946Z,16.17
2023-03-01T15:58:21.629Z,15.93
2023-03-01T16:01:02.138Z,16.13
2023-03-01T16:03:31.570Z,15.93
2023-03-01T16:06:02.224Z,16.30
2023-03-01T16:08:31.254Z,15.67
2023-03-01T16:11:04.692Z,15.70
2023-03-01T16:13:34.234Z,15.53
2023-03-01T16:16:03.024Z,15.67
2023-03-01T16:18:32.931Z,16.33
2023-03-01T16:21:01.927Z,16.30
2023-03-01T16:23:30.798Z,16.13
2023-03-01T16:26:03.153Z,15.70
2023-03-01T16:28:31.757Z,16.00
2023-03-01T16:31:02.475Z,15.10
2023-03-01T16:33:33.275Z,16.33
2023-03-01T16:36:10.037Z,16.17
2023-03-01T16:38:42.048Z,15.30
2023-03-01T16:41:16.827Z,15.67
2023-03-01T16:43:47.524Z,15.53
2023-03-01T16:46:20.398Z,16.47
2023-03-01T16:48:50.387Z,16.00
2023-03-01T16:51:19.907Z,17.33
2023-03-01T16:53:49.451Z,17.40
2023-03-01T16:56:21.137Z,17.47
2023-03-01T16:58:49.933Z,17.17
2023-03-01T17:01:24.505Z,19.23
2023-03-01T17:03:53.930Z,21.17
2023-03-01T17:06:25.936Z,22.83
2023-03-01T17:08:54.863Z,21.80
2023-03-01T17:11:27.050Z,22.83
2023-03-01T17:13:55.792Z,22.40
2023-03-01T17:16:25.076Z,25.83
2023-03-01T17:18:53.850Z,25.77
2023-03-01T17:21:22.750Z,28.20
2023-03-01T17:23:53.031Z,29.00
2023-03-01T17:26:21.757Z,25.53
2023-03-01T17:28:52.844Z,26.17
2023-03-01T17:31:22.278Z,23.83
2023-03-01T17:33:52.369Z,21.83
2023-03-01T17:36:21.276Z,21.13
2023-03-01T17:38:50.024Z,20.27
2023-03-01T17:41:19.297Z,20.93
2023-03-01T17:43:48.499Z,18.87
2023-03-01T17:46:19.275Z,18.20
2023-03-01T17:48:49.766Z,18.50
2023-03-01T17:51:21.572Z,18.93
2023-03-01T17:53:50.480Z,16.97
2023-03-01T17:56:19.232Z,16.90
2023-03-01T17:58:48.000Z,18.80
2023-03-01T18:01:23.718Z,18.83
2023-03-01T18:03:53.658Z,18.23
2023-03-01T18:06:25.869Z,18.43
2023-03-01T18:08:55.566Z,17.47
2023-03-01T18:11:26.740Z,18.30
2023-03-01T18:13:57.401Z,19.10
2023-03-01T18:16:32.115Z,18.63
2023-03-01T18:19:03.344Z,18.60
2023-03-01T18:21:32.874Z,18.53
2023-03-01T18:24:01.997Z,19.40
2023-03-01T18:26:33.675Z,19.10
2023-03-01T18:29:07.927Z,19.80
2023-03-01T18:31:38.393Z,17.50
2023-03-01T18:34:07.517Z,18.07
2023-03-01T18:36:38.366Z,18.40
2023-03-01T18:39:09.645Z,19.60
2023-03-01T18:41:39.763Z,18.73
2023-03-01T18:44:08.526Z,17.63
2023-03-01T18:46:40.132Z,19.17
2023-03-01T18:49:10.505Z,19.33
2023-03-01T18:51:44.199Z,19.33
2023-03-01T18:54:14.284Z,18.90
2023-03-01T18:56:43.155Z,18.43
2023-03-01T18:59:11.944Z,18.53
2023-03-01T19:01:43.650Z,18.43
2023-03-01T19:04:13.833Z,17.83
2023-03-01T19:07:56.786Z,18.43
2023-03-01T19:10:25.957Z,17.30
2023-03-01T19:12:54.719Z,17.50
2023-03-01T19:15:25.521Z,16.93
2023-03-01T19:17:57.544Z,17.83
2023-03-01T19:20:26.725Z,18.90
2023-03-01T19:22:56.044Z,19.07
2023-03-01T19:25:26.815Z,19.40
2023-03-01T19:27:55.796Z,18.80
2023-03-01T19:30:24.981Z,19.53
2023-03-01T19:32:55.731Z,17.93
2023-03-01T19:35:26.634Z,18.30
2023-03-01T19:38:00.433Z,18.47
2023-03-01T19:40:31.024Z,17.97
2023-03-01T19:43:03.144Z,18.53
2023-03-01T19:45:34.492Z,19.03
2023-03-01T19:48:06.595Z,18.43
2023-03-01T19:50:38.569Z,21.67
2023-03-01T19:53:08.386Z,21.83
2023-03-01T19:55:38.830Z,20.97
2023-03-01T19:58:13.837Z,19.30
2023-03-01T20:00:47.759Z,19.37
2023-03-01T20:03:19.294Z,19.53
2023-03-01T20:05:52.534Z,20.77
2023-03-01T20:08:22.814Z,19.23
2023-03-01T20:10:52.235Z,20.10
2023-03-01T20:13:21.817Z,20.03
2023-03-01T20:15:51.155Z,19.63
2023-03-01T20:18:21.284Z,20.07
2023-03-01T20:20:52.987Z,19.67
2023-03-01T20:23:23.348Z,19.97
2023-03-01T20:25:53.981Z,18.87
2023-03-01T20:28:23.056Z,19.23
2023-03-01T20:30:51.917Z,18.60
2023-03-01T20:33:22.406Z,19.63
2023-03-01T20:35:51.975Z,20.00
2023-03-01T20:38:20.820Z,20.37
2023-03-01T20:40:49.578Z,20.10
2023-03-01T20:43:18.362Z,19.40
2023-03-01T20:45:47.146Z,18.60
2023-03-01T20:48:15.911Z,18.03
2023-03-01T20:50:46.115Z,18.93
2023-03-01T20:53:15.350Z,19.20
2023-03-01T20:55:50.391Z,19.40
2023-03-01T20:58:19.149Z,19.53
2023-03-01T21:00:47.941Z,19.47
2023-03-01T21:03:16.706Z,19.57
2023-03-01T21:05:46.791Z,19.27
2023-03-01T21:08:15.465Z,19.10
2023-03-01T21:10:44.231Z,19.17
2023-03-01T21:13:12.892Z,18.40
2023-03-01T21:15:41.586Z,17.70
2023-03-01T21:18:13.236Z,18.80
2023-03-01T21:20:42.781Z,17.50
2023-03-01T21:23:13.004Z,21.00
2023-03-01T21:25:42.592Z,17.57
2023-03-01T21:28:11.440Z,18.90
2023-03-01T21:30:43.512Z,20.77
2023-03-01T21:33:12.548Z,19.10
2023-03-01T21:35:43.689Z,16.67
2023-03-01T21:38:14.521Z,16.63
2023-03-01T21:40:43.492Z,18.13
2023-03-01T21:43:12.427Z,17.70
2023-03-01T21:45:41.461Z,16.13
2023-03-01T21:48:10.455Z,17.73
2023-03-01T21:50:41.722Z,17.83
2023-03-01T21:53:10.526Z,16.90
2023-03-01T21:55:48.901Z,17.03
2023-03-01T21:58:17.982Z,17.90
2023-03-01T22:00:47.348Z,17.37
2023-03-01T22:03:16.884Z,18.57
2023-03-01T22:05:55.554Z,16.97
2023-03-01T22:08:24.395Z,17.87
2023-03-01T22:10:54.814Z,17.57
2023-03-01T22:13:23.513Z,22.00
2023-03-01T22:15:53.233Z,21.83
2023-03-01T22:18:21.849Z,19.73
2023-03-01T22:20:50.580Z,16.77
2023-03-01T22:23:19.227Z,18.00
2023-03-01T22:25:47.940Z,18.13
2023-03-01T22:28:18.357Z,17.57
2023-03-01T22:30:47.077Z,17.30
2023-03-01T22:33:15.800Z,16.63
2023-03-01T22:35:45.012Z,17.60
2023-03-01T22:38:13.883Z,16.47
2023-03-01T22:40:42.768Z,16.03
2023-03-01T22:43:11.568Z,16.37
2023-03-01T22:45:41.801Z,16.63
2023-03-01T22:48:10.801Z,16.33
2023-03-01T22:50:43.058Z,15.77
2023-03-01T22:53:12.327Z,14.63
2023-03-01T22:55:41.519Z,15.13
2023-03-01T22:58:10.800Z,15.37
2023-03-01T23:00:40.940Z,15.07
2023-03-01T23:03:09.678Z,15.73
2023-03-01T23:05:38.469Z,14.97
2023-03-01T23:08:07.132Z,17.00
2023-03-01T23:10:35.883Z,14.77
2023-03-01T23:13:04.523Z,15.03
2023-03-01T23:15:33.189Z,36.27
2023-03-01T23:18:03.254Z,48.57
2023-03-01T23:20:31.995Z,49.63
2023-03-01T23:23:01.621Z,44.63
2023-03-01T23:25:30.351Z,30.27
2023-03-01T23:27:59.078Z,43.73
2023-03-01T23:30:27.803Z,41.43
2023-03-01T23:32:56.964Z,27.43
2023-03-01T23:35:27.222Z,15.90
2023-03-01T23:37:55.987Z,14.27
2023-03-01T23:40:24.614Z,29.67
2023-03-01T23:42:53.378Z,44.47
2023-03-01T23:45:22.034Z,34.03
2023-03-01T23:47:50.846Z,27.17
2023-03-01T23:50:19.797Z,26.37
2023-03-01T23:52:50.321Z,28.23
2023-03-01T23:55:19.377Z,19.53
2023-03-01T23:57:48.669Z,17.53
